Geronimo, Oklahoma
Current Conditions -  °F | °C
As of 8:53 AM on Monday 24 Nov 2014 (Local Time) from KLAW Reporting Station
Clear Clear  
Wind Chill: 37°   Ceiling: Unl
Heat Index: 42°   Visibility: 10mi
Dew Point: 27°   Wind: 9mph
Humidity: 55%   Direction: 280°W
Pressure: 30.04"   Gusts: NA
Location:  34.48°N, 98.38°W
Report Text: KLAW 241453Z 28008KT 10SM CLR 06/M03 A3004 RMK AO2 SLP174 T00561028 51025
Loading
Personal Weather Stations






























Interactive Weather Map New forecast layout! Learn more

10-Day Weather Forecast

Advertisements
Track Severe Weather on mobile